createdAt,value
2016-06-05T18:56:17.320Z,16.22
2016-06-05T18:56:50.417Z,16.16
2016-06-05T18:57:51.028Z,16.25
2016-06-05T18:58:50.938Z,16.29
2016-06-05T18:59:50.408Z,16.29
2016-06-05T19:00:51.224Z,16.27
2016-06-05T19:02:06.883Z,16.27
2016-06-05T19:03:26.338Z,16.25
2016-06-05T19:04:26.841Z,16.29
2016-06-05T19:05:27.438Z,16.29
2016-06-05T19:06:26.347Z,16.27
2016-06-05T19:07:26.991Z,16.29
2016-06-05T19:08:27.462Z,16.25
2016-06-05T19:09:27.558Z,16.25
2016-06-05T19:10:27.233Z,16.22
2016-06-05T19:11:42.645Z,16.14
2016-06-05T19:13:46.103Z,16.14
2016-06-05T19:15:49.046Z,16.18
2016-06-05T19:17:28.268Z,16.14
2016-06-05T19:17:55.723Z,16.11
2016-06-05T19:18:54.991Z,16.25
2016-06-05T19:19:53.947Z,16.22
2016-06-05T19:20:53.778Z,16.11
2016-06-05T19:21:53.874Z,16.22
2016-06-05T19:23:02.690Z,16.21
2016-06-05T19:23:54.161Z,16.1
2016-06-05T19:24:54.211Z,16.26
2016-06-05T19:25:55.338Z,16.16
2016-06-05T19:26:54.481Z,16.25
2016-06-05T19:27:55.750Z,16.21
2016-06-05T19:28:55.112Z,16.17
2016-06-05T19:29:53.646Z,16.21
2016-06-05T19:30:54.164Z,16.18
2016-06-05T19:31:54.230Z,16.16
2016-06-05T19:32:55.779Z,16.02
2016-06-05T19:33:53.782Z,16.1
2016-06-05T19:34:53.847Z,16.07
2016-06-05T19:35:53.927Z,16.08
2016-06-05T19:36:54.149Z,16
2016-06-05T19:37:55.104Z,16.07
2016-06-05T19:38:54.170Z,16.08
2016-06-05T19:40:54.816Z,15.98
2016-06-05T19:41:54.209Z,16.04
2016-06-05T19:43:02.712Z,16.04
2016-06-05T19:43:54.574Z,15.99
2016-06-05T19:44:55.093Z,15.98
2016-06-05T19:45:53.940Z,15.96
2016-06-05T19:46:54.301Z,15.91
2016-06-05T19:47:54.194Z,15.91
2016-06-05T19:48:54.775Z,15.96
2016-06-05T19:49:54.184Z,15.88
2016-06-05T19:50:54.171Z,15.86
2016-06-05T19:51:54.159Z,15.88
2016-06-05T19:52:54.192Z,15.88
2016-06-05T19:53:54.210Z,15.89
2016-06-05T19:54:53.838Z,15.75
2016-06-05T19:55:54.857Z,15.8
2016-06-05T19:56:54.859Z,15.73
2016-06-05T19:57:54.628Z,15.74
2016-06-05T19:58:55.646Z,15.68
2016-06-05T19:59:54.163Z,15.68
2016-06-05T20:00:54.448Z,15.63
2016-06-05T20:01:54.013Z,15.65
2016-06-05T20:02:54.328Z,15.59
2016-06-05T20:03:54.112Z,15.68
2016-06-05T20:04:54.178Z,15.63
2016-06-05T20:05:54.086Z,15.59
2016-06-05T20:06:54.324Z,15.6
2016-06-05T20:07:54.091Z,15.52
2016-06-05T20:08:54.954Z,15.6
2016-06-05T20:09:54.831Z,15.55
2016-06-05T20:10:53.897Z,15.58
2016-06-05T20:11:53.946Z,15.52
2016-06-05T20:12:53.934Z,15.45
2016-06-05T20:13:55.107Z,15.55
2016-06-05T20:14:56.002Z,15.49
2016-06-05T20:15:54.238Z,15.55
2016-06-05T20:16:54.038Z,15.52
2016-06-05T20:17:54.056Z,15.52
2016-06-05T20:18:54.042Z,15.53
2016-06-05T20:20:02.874Z,15.43
2016-06-05T20:20:55.252Z,15.4
2016-06-05T20:21:56.395Z,15.41
2016-06-05T20:22:55.585Z,15.45
2016-06-05T20:23:54.135Z,15.44
2016-06-05T20:24:54.059Z,15.43
2016-06-05T20:25:53.858Z,15.38
2016-06-05T20:26:53.861Z,15.41
2016-06-05T20:27:54.287Z,15.41
2016-06-05T20:28:55.352Z,15.38
2016-06-05T20:29:55.292Z,15.37
2016-06-05T20:30:55.263Z,15.44
2016-06-05T20:31:54.968Z,15.4
2016-06-05T20:32:55.299Z,15.38
2016-06-05T20:33:54.178Z,15.41
2016-06-05T20:34:55.711Z,15.44
2016-06-05T20:35:54.213Z,15.44
2016-06-05T20:36:54.013Z,15.38
2016-06-05T20:43:09.077Z,15.31
2016-06-05T20:43:25.327Z,15.37
2016-06-05T20:44:39.252Z,15.33
2016-06-05T20:45:28.691Z,15.37
2016-06-05T20:46:27.756Z,15.27
2016-06-05T20:47:27.806Z,15.19
2016-06-05T20:48:27.653Z,15.31
2016-06-05T20:49:29.406Z,15.25
2016-06-05T20:50:28.080Z,15.23
2016-06-05T20:51:28.379Z,15.26
2016-06-05T20:52:28.445Z,15.18
2016-06-05T20:53:28.260Z,15.22
2016-06-05T20:54:28.356Z,15.2
2016-06-05T20:55:28.297Z,15.2
